Time;durP1;ratioP1;P1;durP2;ratioP2;P2;SDS_P1;SDS_P2;PMS_P1;PMS_P2;Temp;Humidity;BMP_temperature;BMP_pressure;BME280_temperature;BME280_humidity;BME280_pressure;Samples;Min_cycle;Max_cycle;Signal;HPM_P1;HPM_P2
2022/09/07 00:01:00;;;;;;;19.53;12.97;;;19.70;99.90;;;;;;5012502;28;20226;-87
2022/09/07 00:03:26;;;;;;;19.93;12.70;;;19.70;99.90;;;;;;5012834;28;20219;-88
2022/09/07 00:05:52;;;;;;;20.10;12.00;;;19.70;99.90;;;;;;5013438;28;20207;-87
2022/09/07 00:08:21;;;;;;;19.70;12.30;;;19.60;99.90;;;;;;5013805;28;20218;-88
2022/09/07 00:10:53;;;;;;;26.73;12.03;;;19.60;99.90;;;;;;5013527;28;20230;-87
2022/09/07 00:13:19;;;;;;;20.57;11.77;;;19.50;99.90;;;;;;5013386;28;20214;-89
2022/09/07 00:15:45;;;;;;;21.27;12.03;;;19.50;99.90;;;;;;5028821;28;20243;-89
2022/09/07 00:18:11;;;;;;;18.47;11.57;;;19.40;99.90;;;;;;4979595;28;20229;-89
2022/09/07 00:20:36;;;;;;;15.10;10.00;;;19.30;99.90;;;;;;5012553;28;20211;-88
2022/09/07 00:23:02;;;;;;;20.73;12.27;;;19.30;99.90;;;;;;5012170;28;20191;-89
2022/09/07 00:25:28;;;;;;;16.50;9.20;;;19.20;99.90;;;;;;4996508;28;20274;-89
2022/09/07 00:27:54;;;;;;;14.73;8.70;;;19.10;99.90;;;;;;5012257;28;20231;-89
2022/09/07 00:30:19;;;;;;;15.20;9.03;;;19.10;99.90;;;;;;5013158;28;20365;-89
2022/09/07 00:32:45;;;;;;;15.07;7.67;;;19.00;99.90;;;;;;5013155;28;20222;-87
2022/09/07 00:35:11;;;;;;;12.30;7.23;;;19.00;99.90;;;;;;5012064;28;20293;-84
2022/09/07 00:37:37;;;;;;;14.00;5.93;;;19.00;99.90;;;;;;5013799;28;20215;-87
2022/09/07 00:40:04;;;;;;;7.90;4.93;;;18.90;99.90;;;;;;5012193;28;20587;-88
2022/09/07 00:42:30;;;;;;;7.53;4.67;;;19.00;99.90;;;;;;5013378;28;20703;-87
2022/09/07 00:45:06;;;;;;;6.47;3.53;;;19.00;99.90;;;;;;5012034;28;20649;-87
2022/09/07 00:47:54;;;;;;;6.23;3.70;;;19.00;99.90;;;;;;5013184;28;20265;-86
2022/09/07 00:50:25;;;;;;;6.50;2.80;;;19.00;99.90;;;;;;5013297;28;20223;-89
2022/09/07 00:52:57;;;;;;;2.53;1.97;;;18.90;99.90;;;;;;5012979;28;20171;-88
2022/09/07 00:55:23;;;;;;;1.77;1.60;;;18.80;99.90;;;;;;5013652;28;20270;-88
2022/09/07 00:57:53;;;;;;;5.60;1.50;;;18.70;99.90;;;;;;4979669;28;20319;-87
2022/09/07 01:00:19;;;;;;;3.43;1.80;;;18.80;99.90;;;;;;5012851;28;20219;-87
2022/09/07 01:02:48;;;;;;;4.67;1.63;;;18.80;99.90;;;;;;5011686;28;20211;-85
2022/09/07 01:06:14;;;;;;;2.07;1.07;;;18.80;99.90;;;;;;5012857;28;20246;-87
2022/09/07 01:08:42;;;;;;;3.40;1.10;;;18.80;99.90;;;;;;4933149;29;20699;-88
2022/09/07 01:11:08;;;;;;;1.57;1.20;;;18.70;99.90;;;;;;4898589;29;20325;-88
2022/09/07 01:13:35;;;;;;;4.20;1.80;;;18.70;99.90;;;;;;4943779;28;20242;-86
2022/09/07 01:16:15;;;;;;;1.97;1.33;;;18.70;99.90;;;;;;4997762;28;20246;-88
2022/09/07 01:19:17;;;;;;;3.03;1.40;;;18.60;99.90;;;;;;5012229;28;20235;-86
2022/09/07 01:22:34;;;;;;;5.30;1.93;;;18.60;99.90;;;;;;5011542;28;20685;-87
2022/09/07 01:25:50;;;;;;;10.17;1.63;;;18.50;99.90;;;;;;5011980;28;20239;-86
2022/09/07 01:28:34;;;;;;;2.23;1.17;;;18.40;99.90;;;;;;5014592;28;20226;-88
2022/09/07 01:31:32;;;;;;;3.57;1.10;;;18.40;99.90;;;;;;5032050;28;20273;-87
2022/09/07 01:34:05;;;;;;;1.23;1.00;;;18.50;99.90;;;;;;5031816;28;20219;-87
2022/09/07 01:36:43;;;;;;;0.93;0.93;;;18.40;99.90;;;;;;5015249;28;20223;-87
2022/09/07 01:39:08;;;;;;;10.43;1.30;;;18.50;99.90;;;;;;5015589;28;20300;-89
2022/09/07 01:41:41;;;;;;;3.13;0.97;;;18.50;99.90;;;;;;5014667;28;20350;-87
2022/09/07 01:44:16;;;;;;;2.33;1.23;;;18.50;99.90;;;;;;5014601;28;20261;-89
2022/09/07 01:46:48;;;;;;;3.13;1.20;;;18.40;99.90;;;;;;5015383;28;20185;-86
2022/09/07 01:49:28;;;;;;;2.20;0.73;;;18.40;99.90;;;;;;5015775;28;20577;-86
2022/09/07 01:51:58;;;;;;;1.90;1.40;;;18.30;99.90;;;;;;5011139;28;20224;-86
2022/09/07 01:54:37;;;;;;;6.83;1.37;;;18.30;99.90;;;;;;5009423;28;20230;-85
2022/09/07 01:57:18;;;;;;;4.33;1.00;;;18.30;99.90;;;;;;5015250;28;20223;-87
2022/09/07 02:00:02;;;;;;;2.57;1.27;;;18.20;99.90;;;;;;5015428;28;20211;-87
2022/09/07 02:02:31;;;;;;;5.23;1.17;;;18.20;99.90;;;;;;5013760;28;20222;-86
2022/09/07 02:05:21;;;;;;;7.03;1.23;;;18.10;99.90;;;;;;5015340;28;20176;-87
2022/09/07 02:08:10;;;;;;;4.23;1.63;;;18.10;99.90;;;;;;5014152;28;20187;-86
2022/09/07 02:10:40;;;;;;;0.70;0.70;;;18.10;99.90;;;;;;5015365;28;20168;-87
2022/09/07 02:13:20;;;;;;;7.30;1.40;;;18.00;99.90;;;;;;5013808;28;20223;-86
2022/09/07 02:16:10;;;;;;;2.77;1.27;;;18.00;99.90;;;;;;5014877;28;20214;-84
2022/09/07 02:18:48;;;;;;;2.77;1.17;;;17.90;99.90;;;;;;5013522;28;20235;-87
2022/09/07 02:21:20;;;;;;;2.27;1.70;;;18.00;99.90;;;;;;5014832;28;20215;-87
2022/09/07 02:23:50;;;;;;;4.87;1.43;;;17.90;99.90;;;;;;5014976;28;20306;-88
2022/09/07 02:26:21;;;;;;;2.50;1.30;;;17.80;99.90;;;;;;5013993;28;20212;-88
2022/09/07 02:28:47;;;;;;;4.97;1.60;;;17.80;99.90;;;;;;5014796;28;20211;-85
2022/09/07 02:31:13;;;;;;;1.43;1.30;;;17.80;99.90;;;;;;5015306;28;20222;-88
2022/09/07 02:33:40;;;;;;;2.20;1.30;;;17.80;99.90;;;;;;4997540;28;20220;-87
2022/09/07 02:36:06;;;;;;;1.50;1.30;;;17.80;99.90;;;;;;5010523;28;20216;-89
2022/09/07 02:38:33;;;;;;;3.07;1.47;;;17.80;99.90;;;;;;5001591;28;20254;-90
2022/09/07 02:41:01;;;;;;;7.23;1.77;;;17.70;99.90;;;;;;5013707;28;20179;-91
2022/09/07 02:43:29;;;;;;;0.87;0.87;;;17.70;99.90;;;;;;5030941;28;20179;-89
2022/09/07 02:46:22;;;;;;;3.70;1.90;;;17.70;99.90;;;;;;5014802;28;20223;-90
2022/09/07 02:49:33;;;;;;;6.60;1.63;;;17.70;99.90;;;;;;5013535;28;20595;-88
2022/09/07 02:52:04;;;;;;;3.83;1.83;;;17.60;99.90;;;;;;4959990;28;20215;-89
2022/09/07 02:54:36;;;;;;;2.80;1.00;;;17.70;99.90;;;;;;5014373;28;20215;-89
2022/09/07 02:57:29;;;;;;;2.33;1.60;;;17.70;99.90;;;;;;5013599;28;20227;-89
2022/09/07 03:00:09;;;;;;;2.40;1.53;;;17.70;99.90;;;;;;5010020;28;20685;-89
2022/09/07 03:03:05;;;;;;;1.23;1.13;;;17.80;99.90;;;;;;5001782;28;20211;-92
2022/09/07 03:05:57;;;;;;;3.03;1.47;;;17.90;99.90;;;;;;5014459;28;20211;-93
2022/09/07 03:08:28;;;;;;;6.73;2.10;;;17.90;99.90;;;;;;5013231;28;20215;-92
2022/09/07 03:10:56;;;;;;;7.13;1.87;;;17.90;99.90;;;;;;5014362;28;20700;-93
2022/09/07 03:13:27;;;;;;;3.83;1.90;;;17.90;99.90;;;;;;5030483;28;20238;-91
2022/09/07 03:15:53;;;;;;;4.40;2.43;;;18.00;99.90;;;;;;5013193;28;20222;-93
2022/09/07 03:18:19;;;;;;;2.50;1.80;;;18.00;99.90;;;;;;4994795;28;20228;-91
2022/09/07 03:20:44;;;;;;;5.87;2.10;;;18.00;99.90;;;;;;5001396;28;20230;-91
2022/09/07 03:23:10;;;;;;;2.67;2.03;;;18.00;99.90;;;;;;5009623;28;20581;-91
2022/09/07 03:25:36;;;;;;;4.97;2.53;;;18.00;99.90;;;;;;4977983;28;20180;-91
2022/09/07 03:28:02;;;;;;;3.60;1.90;;;18.00;99.90;;;;;;4995285;28;20219;-92
2022/09/07 03:30:28;;;;;;;2.67;1.80;;;18.00;99.90;;;;;;5029079;28;20215;-93
2022/09/07 03:32:54;;;;;;;1.83;1.63;;;18.00;99.90;;;;;;5012919;28;20223;-92
2022/09/07 03:35:20;;;;;;;3.23;2.10;;;18.00;99.90;;;;;;5012367;28;20680;-93
2022/09/07 03:37:45;;;;;;;2.23;1.87;;;18.00;99.90;;;;;;4997129;28;20214;-93
2022/09/07 03:40:14;;;;;;;2.50;1.70;;;18.00;99.90;;;;;;4993665;28;20667;-91
2022/09/07 03:42:40;;;;;;;3.83;2.03;;;17.90;99.90;;;;;;5009443;28;20274;-92
2022/09/07 03:45:07;;;;;;;6.40;1.90;;;17.90;99.90;;;;;;5009602;28;20218;-93
2022/09/07 03:47:34;;;;;;;5.63;2.10;;;17.90;99.90;;;;;;4977191;28;20310;-94
2022/09/07 03:50:00;;;;;;;3.43;2.47;;;18.00;99.90;;;;;;4994300;28;20187;-93
2022/09/07 03:52:26;;;;;;;4.70;1.73;;;17.90;99.90;;;;;;4977599;28;20180;-93
2022/09/07 03:54:51;;;;;;;3.20;1.80;;;17.90;99.90;;;;;;4976892;28;20278;-92
2022/09/07 03:57:19;;;;;;;5.47;1.70;;;17.90;99.90;;;;;;4992774;28;20228;-93
2022/09/07 03:59:45;;;;;;;3.63;1.53;;;18.00;99.90;;;;;;4993015;28;20220;-94
2022/09/07 04:02:12;;;;;;;4.20;1.87;;;18.00;99.90;;;;;;4993002;28;20346;-93
2022/09/07 04:04:38;;;;;;;2.67;1.50;;;18.00;99.90;;;;;;4994500;28;20207;-93
2022/09/07 04:07:05;;;;;;;5.63;1.80;;;18.00;99.90;;;;;;4976764;28;20689;-91
2022/09/07 04:09:31;;;;;;;3.90;1.73;;;18.00;99.90;;;;;;4976890;28;20219;-91
2022/09/07 04:11:56;;;;;;;3.67;2.53;;;18.10;99.90;;;;;;4992591;28;20693;-92
2022/09/07 04:14:22;;;;;;;2.20;2.00;;;18.10;99.90;;;;;;4976497;28;20227;-90
2022/09/07 04:16:48;;;;;;;6.93;2.60;;;18.20;99.90;;;;;;4993866;28;20216;-92
2022/09/07 04:19:14;;;;;;;6.50;2.37;;;18.20;99.90;;;;;;4994250;28;20188;-91
2022/09/07 04:21:40;;;;;;;5.97;2.33;;;18.20;99.90;;;;;;4976656;28;20242;-91
2022/09/07 04:24:06;;;;;;;4.53;1.57;;;18.10;99.90;;;;;;4993610;28;20219;-90
2022/09/07 04:26:34;;;;;;;4.27;2.30;;;18.10;99.90;;;;;;4977092;28;20296;-93
2022/09/07 04:29:01;;;;;;;3.57;1.50;;;18.00;99.90;;;;;;4993863;28;20187;-92
2022/09/07 04:31:27;;;;;;;8.00;2.30;;;17.90;99.90;;;;;;4993359;28;20184;-91
2022/09/07 04:33:54;;;;;;;3.03;1.73;;;18.00;99.90;;;;;;4993181;28;20230;-94
2022/09/07 04:36:20;;;;;;;8.13;1.67;;;18.00;99.90;;;;;;5002124;28;20216;-92
2022/09/07 04:38:46;;;;;;;5.40;1.60;;;18.00;99.90;;;;;;5001646;28;20227;-89
2022/09/07 04:41:14;;;;;;;3.10;1.83;;;18.10;99.90;;;;;;5009010;28;20240;-91
2022/09/07 04:43:42;;;;;;;4.03;1.93;;;18.10;99.90;;;;;;4994411;28;20232;-91
2022/09/07 04:46:17;;;;;;;1.87;1.33;;;18.10;99.90;;;;;;5012182;28;20660;-89
2022/09/07 04:48:42;;;;;;;3.10;1.60;;;18.10;99.90;;;;;;5012925;28;20226;-90
2022/09/07 04:51:09;;;;;;;4.00;1.50;;;18.00;99.90;;;;;;4991479;28;20672;-87
2022/09/07 04:53:36;;;;;;;3.47;1.00;;;17.90;99.90;;;;;;5012765;28;20262;-90
2022/09/07 04:56:03;;;;;;;4.03;2.73;;;17.90;99.90;;;;;;4998785;28;20187;-89
2022/09/07 04:58:29;;;;;;;3.23;2.00;;;17.90;99.90;;;;;;5016110;28;20211;-90
2022/09/07 05:01:02;;;;;;;3.80;1.97;;;17.90;99.90;;;;;;5015537;28;20219;-89
2022/09/07 05:03:35;;;;;;;4.83;1.40;;;17.90;99.90;;;;;;5015693;28;20216;-87
2022/09/07 05:06:05;;;;;;;4.40;1.60;;;17.90;99.90;;;;;;5016699;28;20273;-89
2022/09/07 05:08:40;;;;;;;6.57;2.10;;;17.90;99.90;;;;;;5016534;28;20225;-89
2022/09/07 05:11:06;;;;;;;3.50;1.40;;;17.90;99.90;;;;;;5015290;28;20690;-89
2022/09/07 05:13:33;;;;;;;3.53;1.73;;;17.90;99.90;;;;;;5016920;28;20669;-89
2022/09/07 05:16:05;;;;;;;4.07;2.07;;;18.00;99.90;;;;;;5015570;28;20269;-90
2022/09/07 05:18:32;;;;;;;1.73;1.37;;;18.00;99.90;;;;;;5012025;28;20235;-88
2022/09/07 05:21:22;;;;;;;5.50;2.00;;;17.90;99.90;;;;;;4989314;28;20235;-90
2022/09/07 05:23:50;;;;;;;4.77;1.90;;;17.90;99.90;;;;;;5011769;28;20600;-89
2022/09/07 05:26:16;;;;;;;10.40;2.77;;;17.80;99.90;;;;;;5018196;28;20215;-88
2022/09/07 05:28:43;;;;;;;5.77;2.00;;;17.80;99.90;;;;;;5033293;28;20163;-89
2022/09/07 05:31:14;;;;;;;5.00;1.80;;;17.90;99.90;;;;;;5009809;28;20218;-87
2022/09/07 05:33:48;;;;;;;5.23;1.97;;;17.90;99.90;;;;;;5031659;28;20216;-89
2022/09/07 05:36:14;;;;;;;5.40;2.90;;;17.90;99.90;;;;;;5015988;28;20222;-90
2022/09/07 05:38:40;;;;;;;6.77;1.50;;;17.90;99.90;;;;;;5014771;28;20900;-89
2022/09/07 05:41:14;;;;;;;2.60;1.43;;;17.90;99.90;;;;;;5014799;28;20355;-88
2022/09/07 05:43:40;;;;;;;7.97;2.23;;;18.00;99.90;;;;;;5016676;28;20180;-88
2022/09/07 05:46:07;;;;;;;12.97;2.90;;;18.00;99.90;;;;;;5016198;28;20657;-90
2022/09/07 05:48:33;;;;;;;5.63;1.97;;;18.00;99.90;;;;;;5000596;28;20230;-89
2022/09/07 05:50:59;;;;;;;4.83;2.13;;;18.10;99.90;;;;;;4979197;28;20298;-88
2022/09/07 05:53:25;;;;;;;5.60;1.70;;;18.10;99.90;;;;;;4995082;28;20696;-89
2022/09/07 05:55:50;;;;;;;9.67;3.23;;;18.20;99.90;;;;;;4995153;28;20263;-90
2022/09/07 05:58:17;;;;;;;3.83;2.03;;;18.20;99.90;;;;;;5011448;28;20695;-90
2022/09/07 06:00:44;;;;;;;2.27;1.90;;;18.20;99.90;;;;;;5007520;28;20270;-88
2022/09/07 06:03:10;;;;;;;4.20;2.33;;;18.00;99.90;;;;;;5006458;28;20219;-88
2022/09/07 06:05:36;;;;;;;6.83;2.20;;;18.10;99.90;;;;;;5011392;28;20300;-89
2022/09/07 06:08:03;;;;;;;10.00;2.53;;;18.10;99.90;;;;;;4997368;28;20294;-89
2022/09/07 06:10:34;;;;;;;6.33;2.33;;;18.10;99.90;;;;;;4998769;28;20629;-90
2022/09/07 06:13:00;;;;;;;5.50;2.17;;;18.20;99.90;;;;;;5015760;28;20223;-89
2022/09/07 06:15:25;;;;;;;7.77;2.27;;;18.20;99.90;;;;;;5014267;28;20219;-89
2022/09/07 06:17:52;;;;;;;5.10;2.47;;;18.10;99.90;;;;;;4998081;28;20223;-91
2022/09/07 06:20:18;;;;;;;5.23;2.40;;;18.10;99.90;;;;;;4982290;28;20345;-91
2022/09/07 06:22:43;;;;;;;5.60;2.63;;;18.20;99.90;;;;;;5015020;28;20276;-90
2022/09/07 06:25:09;;;;;;;10.37;2.37;;;18.20;99.90;;;;;;4998151;28;20744;-91
2022/09/07 06:27:35;;;;;;;3.90;2.43;;;18.30;99.90;;;;;;5013906;28;20357;-92
2022/09/07 06:30:00;;;;;;;3.43;2.47;;;18.20;99.90;;;;;;5014257;28;20215;-89
2022/09/07 06:32:26;;;;;;;5.97;3.40;;;18.40;99.90;;;;;;4981222;28;20222;-92
2022/09/07 06:34:52;;;;;;;5.10;2.77;;;18.40;99.90;;;;;;4997619;28;20414;-91
2022/09/07 06:37:18;;;;;;;3.90;3.50;;;18.40;99.90;;;;;;4982362;28;20212;-91
2022/09/07 06:39:43;;;;;;;4.23;2.97;;;18.40;99.90;;;;;;5013314;28;20627;-90
2022/09/07 06:42:09;;;;;;;6.63;2.77;;;18.30;99.90;;;;;;5013943;28;20676;-90
2022/09/07 06:44:35;;;;;;;8.67;4.13;;;18.20;99.90;;;;;;5014805;28;20680;-91
2022/09/07 06:47:01;;;;;;;5.20;2.90;;;18.30;99.90;;;;;;5014914;28;20242;-90
2022/09/07 06:49:27;;;;;;;7.20;4.10;;;18.40;99.90;;;;;;4998669;28;20180;-90
2022/09/07 06:51:53;;;;;;;6.43;4.43;;;19.30;99.90;;;;;;4997305;28;20223;-90
2022/09/07 06:54:19;;;;;;;6.83;3.63;;;20.10;99.90;;;;;;5014596;28;20685;-87
2022/09/07 06:56:45;;;;;;;3.57;3.10;;;20.50;99.90;;;;;;5014701;28;20226;-90
2022/09/07 06:59:10;;;;;;;6.17;3.63;;;20.90;99.90;;;;;;4981390;28;20258;-89
2022/09/07 07:01:36;;;;;;;3.13;2.83;;;21.20;99.90;;;;;;4997985;28;20549;-90
2022/09/07 07:04:02;;;;;;;4.97;3.40;;;21.10;99.90;;;;;;5014802;28;20219;-93
2022/09/07 07:06:38;;;;;;;5.83;3.70;;;21.00;99.90;;;;;;5016428;28;20216;-91
2022/09/07 07:09:05;;;;;;;5.87;3.40;;;21.30;99.90;;;;;;5015789;28;20222;-89
2022/09/07 07:11:31;;;;;;;5.13;3.60;;;21.50;99.90;;;;;;5013983;28;20688;-91
2022/09/07 07:13:57;;;;;;;4.70;4.03;;;21.10;99.90;;;;;;5013775;28;20213;-92
2022/09/07 07:16:26;;;;;;;6.33;3.87;;;21.10;99.90;;;;;;5015083;28;20180;-90
2022/09/07 07:18:55;;;;;;;4.67;3.63;;;20.50;99.90;;;;;;4996611;28;20292;-89
2022/09/07 07:21:21;;;;;;;6.03;4.00;;;20.20;99.90;;;;;;5012794;28;20265;-83
2022/09/07 07:23:52;;;;;;;4.93;4.43;;;19.80;99.90;;;;;;5014866;28;20595;-89
2022/09/07 07:26:20;;;;;;;5.80;3.93;;;19.60;99.90;;;;;;5014582;28;20222;-88
2022/09/07 07:28:50;;;;;;;5.07;4.57;;;19.60;99.90;;;;;;5017055;28;20651;-83
2022/09/07 07:31:21;;;;;;;7.40;5.57;;;19.50;99.90;;;;;;4998666;28;20190;-91
2022/09/07 07:33:48;;;;;;;7.70;4.70;;;19.40;99.90;;;;;;5012894;28;20211;-89
2022/09/07 07:36:25;;;;;;;6.77;4.33;;;19.40;99.90;;;;;;5009367;28;20244;-90
2022/09/07 07:38:54;;;;;;;6.00;4.90;;;19.40;99.90;;;;;;5002374;28;20227;-89
2022/09/07 07:41:22;;;;;;;6.60;5.60;;;19.30;99.90;;;;;;5013584;28;20660;-89
2022/09/07 07:43:55;;;;;;;5.80;4.30;;;19.40;99.90;;;;;;5012906;28;20183;-91
2022/09/07 07:46:24;;;;;;;6.63;5.77;;;19.40;99.90;;;;;;5013034;28;20564;-88
2022/09/07 07:48:51;;;;;;;8.60;5.47;;;19.40;99.90;;;;;;4996576;28;20223;-88
2022/09/07 07:51:17;;;;;;;5.87;5.13;;;19.30;99.90;;;;;;5013465;28;20269;-88
2022/09/07 07:53:43;;;;;;;7.40;5.33;;;19.40;99.90;;;;;;5028943;28;20211;-87
2022/09/07 07:56:10;;;;;;;7.03;5.27;;;19.60;99.90;;;;;;5012468;28;20621;-88
2022/09/07 07:58:37;;;;;;;6.73;5.03;;;19.60;99.90;;;;;;5012576;28;20207;-87
2022/09/07 08:01:04;;;;;;;7.50;5.13;;;19.50;99.90;;;;;;4996326;28;20226;-89
2022/09/07 08:03:33;;;;;;;6.17;5.33;;;19.50;99.90;;;;;;5013379;28;20723;-90
2022/09/07 08:06:12;;;;;;;7.43;5.27;;;19.60;99.90;;;;;;5012235;28;20218;-89
2022/09/07 08:08:38;;;;;;;8.60;4.93;;;19.80;99.90;;;;;;5008803;28;20219;-89
2022/09/07 08:11:07;;;;;;;6.40;5.03;;;20.00;99.90;;;;;;4994834;28;20802;-89
2022/09/07 08:13:37;;;;;;;7.17;5.27;;;19.90;99.90;;;;;;5012467;28;20541;-88
2022/09/07 08:16:04;;;;;;;6.90;5.63;;;19.90;99.90;;;;;;5013514;28;20297;-90
2022/09/07 08:18:31;;;;;;;7.10;5.97;;;20.00;99.90;;;;;;5012064;28;20230;-87
2022/09/07 08:21:01;;;;;;;8.17;5.10;;;20.10;99.90;;;;;;5013712;28;20230;-89
2022/09/07 08:23:27;;;;;;;7.40;4.93;;;20.30;99.90;;;;;;5018726;28;20779;-92
2022/09/07 08:25:55;;;;;;;6.43;5.50;;;20.30;99.90;;;;;;5002653;28;20179;-88
2022/09/07 08:28:22;;;;;;;7.73;6.03;;;20.40;99.90;;;;;;5020894;28;20179;-89
2022/09/07 08:30:48;;;;;;;8.47;5.83;;;20.40;99.90;;;;;;5019640;28;20279;-90
2022/09/07 08:33:14;;;;;;;10.67;6.50;;;20.50;99.90;;;;;;5002491;28;20246;-89
2022/09/07 08:35:40;;;;;;;9.03;6.67;;;20.40;99.90;;;;;;5022371;28;20285;-87
2022/09/07 08:38:06;;;;;;;6.63;5.87;;;20.60;99.90;;;;;;5005957;28;20211;-90
2022/09/07 08:40:35;;;;;;;8.97;6.20;;;20.80;99.90;;;;;;5031360;28;20213;-88
2022/09/07 08:43:35;;;;;;;6.80;5.97;;;21.40;99.90;;;;;;5049497;28;20218;-93
2022/09/07 08:46:28;;;;;;;6.77;5.60;;;22.10;99.90;;;;;;5015573;28;20220;-92
2022/09/07 08:48:56;;;;;;;7.23;5.70;;;23.00;99.90;;;;;;5017342;28;20253;-90
2022/09/07 08:51:34;;;;;;;7.47;5.50;;;23.10;99.90;;;;;;5034996;28;20706;-90
2022/09/07 08:54:00;;;;;;;6.40;5.60;;;24.00;99.90;;;;;;5019569;28;20269;-90
2022/09/07 08:56:30;;;;;;;7.13;5.57;;;24.90;99.90;;;;;;5001951;28;20211;-89
2022/09/07 08:58:57;;;;;;;6.43;5.00;;;26.30;99.90;;;;;;5035196;28;20218;-90
2022/09/07 09:01:39;;;;;;;6.40;5.18;;;26.70;99.90;;;;;;5019095;28;20230;-88
2022/09/07 09:04:27;;;;;;;8.43;6.40;;;27.30;99.90;;;;;;5018452;28;20229;-90
2022/09/07 09:07:06;;;;;;;5.22;4.53;;;28.00;99.90;;;;;;5016447;28;20223;-91
2022/09/07 09:09:50;;;;;;;5.63;4.45;;;28.60;99.90;;;;;;5013476;28;20696;-91
2022/09/07 09:12:39;;;;;;;4.78;4.25;;;29.50;99.90;;;;;;5020140;28;20243;-90
2022/09/07 09:15:22;;;;;;;6.53;4.20;;;28.30;99.90;;;;;;5034949;28;20227;-88
2022/09/07 09:18:18;;;;;;;4.85;4.35;;;27.70;99.90;;;;;;5015059;28;20224;-89
2022/09/07 09:20:49;;;;;;;3.80;3.40;;;28.80;99.90;;;;;;5006210;28;20265;-91
2022/09/07 09:23:19;;;;;;;3.80;3.47;;;28.10;99.90;;;;;;5024154;28;20215;-94
2022/09/07 09:25:57;;;;;;;6.28;4.13;;;26.50;99.90;;;;;;5006860;28;20210;-95
2022/09/07 09:28:23;;;;;;;5.60;3.55;;;26.00;99.90;;;;;;5017785;28;20290;-91
2022/09/07 09:30:49;;;;;;;4.13;3.10;;;27.10;99.90;;;;;;4998570;28;20261;-92
2022/09/07 09:33:21;;;;;;;3.80;3.30;;;28.00;99.90;;;;;;5016059;28;20246;-91
2022/09/07 09:35:49;;;;;;;4.53;2.95;;;28.90;99.90;;;;;;4998403;28;20215;-95
2022/09/07 09:38:36;;;;;;;3.25;2.95;;;29.20;99.90;;;;;;5015648;28;20255;-91
2022/09/07 09:41:21;;;;;;;5.60;2.83;;;29.80;99.90;;;;;;5004729;28;20263;-94
2022/09/07 09:43:50;;;;;;;3.35;3.00;;;29.20;99.90;;;;;;5002938;28;20234;-93
2022/09/07 09:46:30;;;;;;;3.90;3.40;;;30.10;99.90;;;;;;4998755;28;20669;-93
2022/09/07 09:49:02;;;;;;;4.20;2.95;;;29.80;99.90;;;;;;5018630;28;20223;-91
2022/09/07 09:51:32;;;;;;;4.20;2.33;;;29.10;99.90;;;;;;5003045;28;20224;-92
2022/09/07 09:54:00;;;;;;;2.95;2.53;;;29.20;99.90;;;;;;5006979;28;20251;-92
2022/09/07 09:56:41;;;;;;;3.63;2.88;;;29.00;99.90;;;;;;5004460;28;20550;-95
2022/09/07 09:59:22;;;;;;;3.08;2.78;;;28.00;99.90;;;;;;5006904;28;20239;-94
2022/09/07 10:01:49;;;;;;;2.45;2.22;;;28.00;99.90;;;;;;4981283;23;20233;-89
2022/09/07 10:04:29;;;;;;;3.55;2.47;;;28.40;99.90;;;;;;4944256;28;20173;-89
2022/09/07 10:07:19;;;;;;;2.67;1.88;;;30.00;99.90;;;;;;4973260;28;20589;-89
2022/09/07 10:09:50;;;;;;;3.53;2.00;;;30.30;99.90;;;;;;4972043;28;20217;-89
2022/09/07 10:12:29;;;;;;;3.65;2.47;;;30.60;99.90;;;;;;4956985;28;20280;-89
2022/09/07 10:14:58;;;;;;;2.85;2.45;;;30.30;99.90;;;;;;4972520;28;20237;-90
2022/09/07 10:17:37;;;;;;;3.67;2.67;;;31.10;99.90;;;;;;4951652;28;20228;-90
2022/09/07 10:20:14;;;;;;;2.42;2.22;;;31.60;99.90;;;;;;4975613;28;20180;-90
2022/09/07 10:22:51;;;;;;;2.75;2.38;;;32.50;99.90;;;;;;4976069;28;20192;-92
2022/09/07 10:25:29;;;;;;;2.65;2.35;;;32.70;99.90;;;;;;4970816;28;20221;-92
2022/09/07 10:28:13;;;;;;;2.95;2.65;;;32.00;99.90;;;;;;4961587;28;20212;-91
2022/09/07 10:31:15;;;;;;;3.70;2.55;;;31.20;99.90;;;;;;4955806;28;20221;-91
2022/09/07 10:34:17;;;;;;;4.32;2.45;;;31.20;99.90;;;;;;4960453;28;20224;-91
2022/09/07 10:36:48;;;;;;;2.53;2.33;;;31.50;99.90;;;;;;4977791;28;20608;-92
2022/09/07 10:39:21;;;;;;;2.13;1.92;;;31.00;99.90;;;;;;4957053;28;20232;-92
2022/09/07 10:41:53;;;;;;;1.73;1.52;;;30.50;99.90;;;;;;4972084;28;20758;-92
2022/09/07 10:44:37;;;;;;;2.78;2.20;;;30.80;99.90;;;;;;4955549;28;20248;-93
2022/09/07 10:47:14;;;;;;;2.53;2.33;;;30.40;99.90;;;;;;4969575;28;20184;-91
2022/09/07 10:49:50;;;;;;;1.73;1.63;;;30.70;99.90;;;;;;4972078;28;20230;-90
2022/09/07 10:52:37;;;;;;;3.25;1.70;;;30.30;99.90;;;;;;4971794;28;20255;-91
2022/09/07 10:55:18;;;;;;;1.80;1.60;;;29.60;99.90;;;;;;4990944;28;20313;-92
2022/09/07 10:58:05;;;;;;;1.50;1.40;;;29.70;99.90;;;;;;4974629;28;20275;-93
2022/09/07 11:00:49;;;;;;;2.55;1.33;;;29.70;99.90;;;;;;4990889;28;20595;-91
2022/09/07 11:03:38;;;;;;;1.92;1.63;;;28.80;99.90;;;;;;4990883;28;20227;-90
2022/09/07 11:06:21;;;;;;;1.60;1.25;;;28.10;99.90;;;;;;4974639;28;20716;-91
2022/09/07 11:08:52;;;;;;;2.75;1.50;;;27.30;99.90;;;;;;4990502;28;20295;-91
2022/09/07 11:11:31;;;;;;;1.85;1.25;;;26.40;99.90;;;;;;4990921;28;20824;-90
2022/09/07 11:14:03;;;;;;;1.80;1.33;;;25.90;99.90;;;;;;4980181;28;20612;-91
2022/09/07 11:16:33;;;;;;;2.88;1.50;;;25.40;99.90;;;;;;4975075;28;20199;-92
2022/09/07 11:19:16;;;;;;;1.60;1.50;;;25.40;99.90;;;;;;4975318;28;20240;-93
2022/09/07 11:21:53;;;;;;;1.65;1.40;;;24.90;99.90;;;;;;4974106;28;20217;-95
2022/09/07 11:24:44;;;;;;;2.00;1.10;;;24.50;99.90;;;;;;4973912;28;21120;-95
2022/09/07 11:27:21;;;;;;;1.15;1.08;;;24.80;99.90;;;;;;4970385;28;20752;-92
2022/09/07 11:29:58;;;;;;;1.50;1.33;;;24.90;99.90;;;;;;4974087;28;20208;-93
2022/09/07 11:32:31;;;;;;;1.48;1.25;;;24.90;99.90;;;;;;4970938;28;20213;-95
2022/09/07 11:35:04;;;;;;;1.00;1.00;;;24.80;99.90;;;;;;4970854;28;20185;-94
2022/09/07 11:37:53;;;;;;;1.23;1.13;;;24.70;99.90;;;;;;4956269;28;20213;-93
2022/09/07 11:40:27;;;;;;;2.38;1.00;;;25.00;99.90;;;;;;4974278;28;20559;-94
2022/09/07 11:42:58;;;;;;;1.95;1.15;;;25.10;99.90;;;;;;4960529;28;20271;-92
2022/09/07 11:45:45;;;;;;;1.38;1.10;;;25.30;99.90;;;;;;4970686;28;20233;-92
2022/09/07 11:48:33;;;;;;;2.47;1.25;;;25.70;99.90;;;;;;4959427;28;20308;-93
2022/09/07 11:51:04;;;;;;;2.50;0.80;;;25.90;99.90;;;;;;4954620;28;20261;-96
2022/09/07 11:53:38;;;;;;;1.05;0.80;;;26.50;99.90;;;;;;4954895;28;20209;-94
2022/09/07 11:56:14;;;;;;;1.08;0.90;;;27.50;99.90;;;;;;4966214;28;20176;-92
2022/09/07 11:59:03;;;;;;;1.65;0.90;;;27.60;99.90;;;;;;4957685;28;20827;-91
2022/09/07 12:01:41;;;;;;;0.70;0.70;;;27.80;99.90;;;;;;4973754;28;20312;-92
2022/09/07 12:04:31;;;;;;;1.65;0.95;;;27.80;99.90;;;;;;4973638;28;20227;-92
2022/09/07 12:07:15;;;;;;;2.45;1.08;;;26.70;99.90;;;;;;4973333;28;20259;-93
2022/09/07 12:09:47;;;;;;;1.13;1.00;;;26.50;99.90;;;;;;4969473;28;20254;-95
2022/09/07 12:12:24;;;;;;;0.85;0.80;;;26.50;99.90;;;;;;4966426;28;20220;-95
2022/09/07 12:15:21;;;;;;;2.55;0.90;;;26.60;99.90;;;;;;4988623;28;20219;-93
2022/09/07 12:18:09;;;;;;;1.30;1.20;;;26.50;99.90;;;;;;4954212;28;20225;-92
2022/09/07 12:20:53;;;;;;;1.48;1.30;;;26.40;99.90;;;;;;4953966;28;20693;-87
2022/09/07 12:23:30;;;;;;;2.33;1.20;;;26.50;99.90;;;;;;4969899;28;20304;-90
2022/09/07 12:26:41;;;;;;;1.33;1.23;;;26.70;99.90;;;;;;4965669;28;20206;-89
2022/09/07 12:29:25;;;;;;;2.33;1.50;;;26.10;99.90;;;;;;4971948;28;20362;-88
2022/09/07 12:31:56;;;;;;;1.63;1.40;;;26.40;99.90;;;;;;4973264;28;20212;-89
2022/09/07 12:34:30;;;;;;;3.00;1.55;;;26.70;99.90;;;;;;4954729;29;20551;-90
2022/09/07 12:36:58;;;;;;;1.52;1.20;;;26.60;99.90;;;;;;4953706;28;20220;-89
2022/09/07 12:39:28;;;;;;;1.90;1.60;;;27.00;99.90;;;;;;4955818;28;20214;-89
2022/09/07 12:42:06;;;;;;;3.08;1.45;;;26.10;99.90;;;;;;4955808;28;20217;-90
2022/09/07 12:44:36;;;;;;;2.13;1.83;;;25.70;99.90;;;;;;4973099;28;20237;-91
2022/09/07 12:47:11;;;;;;;1.92;1.73;;;26.20;99.90;;;;;;4923471;28;20547;-90
2022/09/07 12:49:58;;;;;;;3.28;1.95;;;25.90;99.90;;;;;;4962678;28;20185;-89
2022/09/07 12:52:39;;;;;;;2.95;1.85;;;25.60;99.90;;;;;;4970151;28;20197;-89
2022/09/07 12:55:32;;;;;;;2.83;1.98;;;25.90;99.90;;;;;;4953618;28;20220;-84
2022/09/07 12:58:27;;;;;;;1.70;1.60;;;25.90;99.90;;;;;;4954738;28;21217;-88
2022/09/07 13:01:19;;;;;;;2.28;2.10;;;25.90;99.90;;;;;;4953120;28;20721;-89
2022/09/07 13:04:02;;;;;;;4.38;2.35;;;25.80;99.90;;;;;;4970032;28;20239;-89
2022/09/07 13:06:47;;;;;;;1.80;1.40;;;26.10;99.90;;;;;;4972799;28;20216;-90
2022/09/07 13:09:31;;;;;;;1.92;1.83;;;26.30;99.90;;;;;;4975174;28;20217;-87
2022/09/07 13:11:57;;;;;;;1.77;1.67;;;26.10;99.90;;;;;;4975629;28;20220;-89
2022/09/07 13:14:28;;;;;;;3.47;1.70;;;25.80;99.90;;;;;;4944443;28;20748;-88
2022/09/07 13:17:25;;;;;;;2.85;2.08;;;25.80;99.90;;;;;;4976893;28;20230;-89